PWSweather.com
Personal Weather Stations
Station Observations
KTXPLANO60
Highlands Of Russell Park, Plano, TX 75025

Highlands Of Russell ParkPlano, TX 75025

Lat: 33.10431671, Lon: -96.75176239

Elevation: 761

Station Type: Davis Wireless VP2 Plus

http://www.planoweather.com

Latest ConditionsUpdated 6:40:01 AM CDT Friday, Apr 19, 2019
Currently Today's Max Today's Min Today's Average
Temperature 51.1°F10.6°C 53.8°F12.1°C 51.1°F10.6°C 52.5°F11.4°C
Dew Point 43.4°F6.3°C 46.2°F7.9°C 43.4°F6.3°C 45.2°F7.3°C
Winds 8.1 mph NW13.0 kmh NW 11.5 mph -18.5 kmh - - 8.2 mph 13.2 kmh
Wind Gusts 11.5 mph18.5 kmh 18.4 mph29.6 kmh - -
Humidity 75% 78% 74% 76%
Pressure 29.94 in1013.9 mb 29.94 in1013.9 mb 29.90 in1012.5 mb -
Hour Temp Dew Point Humidity Winds Wind Gusts Pressure Precip Precip Rate Daily Precip Total
06:40 AM 51.1°F10.6°C 43.4°F6.3°C 75% 8.1 mph NW13.0 kmh NW 11.5 mph18.5 kmh 29.94 in1013.9 mb - 0.00 in0.0 mm 0.00 in0.0 mm
06:30 AM 51.1°F10.6°C 43.4°F6.3°C 75% 10.4 mph NW16.7 kmh NW 15.0 mph24.1 kmh 29.93 in1013.5 mb - 0.00 in0.0 mm 0.00 in0.0 mm
06:20 AM 51.2°F10.7°C 43.5°F6.4°C 75% 6.9 mph NW11.1 kmh NW 11.5 mph18.5 kmh 29.93 in1013.5 mb - 0.00 in0.0 mm 0.00 in0.0 mm
06:10 AM 51.3°F10.7°C 43.6°F6.4°C 75% 5.8 mph NW9.3 kmh NW 6.9 mph11.1 kmh 29.92 in1013.2 mb - 0.00 in0.0 mm 0.00 in0.0 mm
06:00 AM 51.3°F10.7°C 43.6°F6.4°C 75% 8.1 mph WNW13.0 kmh WNW 13.8 mph22.2 kmh 29.92 in1013.2 mb - 0.00 in0.0 mm 0.00 in0.0 mm
05:50 AM 51.2°F10.7°C 43.9°F6.6°C 76% 9.2 mph NW14.8 kmh NW 15.0 mph24.1 kmh 29.92 in1013.2 mb - 0.00 in0.0 mm 0.00 in0.0 mm
05:40 AM 51.3°F10.7°C 44.0°F6.7°C 76% 8.1 mph NW13.0 kmh NW 13.8 mph22.2 kmh 29.91 in1012.9 mb - 0.00 in0.0 mm 0.00 in0.0 mm
05:30 AM 51.4°F10.8°C 44.4°F6.9°C 77% 8.1 mph NW13.0 kmh NW 11.5 mph18.5 kmh 29.92 in1013.2 mb - 0.00 in0.0 mm 0.00 in0.0 mm
05:20 AM 51.4°F10.8°C 44.4°F6.9°C 77% 8.1 mph NW13.0 kmh NW 12.7 mph20.4 kmh 29.92 in1013.2 mb - 0.00 in0.0 mm 0.00 in0.0 mm
05:10 AM 51.5°F10.8°C 44.5°F6.9°C 77% 8.1 mph NW13.0 kmh NW 13.8 mph22.2 kmh 29.91 in1012.9 mb - 0.00 in0.0 mm 0.00 in0.0 mm
05:00 AM 51.5°F10.8°C 44.6°F7.0°C 77% 8.1 mph NW13.0 kmh NW 11.5 mph18.5 kmh 29.91 in1012.9 mb - 0.00 in0.0 mm 0.00 in0.0 mm
04:50 AM 51.7°F10.9°C 44.7°F7.1°C 77% 6.9 mph NW11.1 kmh NW 12.7 mph20.4 kmh 29.91 in1012.9 mb - 0.00 in0.0 mm 0.00 in0.0 mm
04:40 AM 51.9°F11.1°C 44.9°F7.2°C 77% 6.9 mph WNW11.1 kmh WNW 11.5 mph18.5 kmh 29.91 in1012.9 mb - 0.00 in0.0 mm 0.00 in0.0 mm
04:30 AM 52.0°F11.1°C 45.1°F7.3°C 77% 6.9 mph WNW11.1 kmh WNW 11.5 mph18.5 kmh 29.91 in1012.9 mb - 0.00 in0.0 mm 0.00 in0.0 mm
04:20 AM 52.2°F11.2°C 45.2°F7.3°C 77% 8.1 mph NW13.0 kmh NW 11.5 mph18.5 kmh 29.90 in1012.5 mb - 0.00 in0.0 mm 0.00 in0.0 mm
04:10 AM 52.3°F11.3°C 45.0°F7.2°C 76% 10.4 mph WNW16.7 kmh WNW 12.7 mph20.4 kmh 29.90 in1012.5 mb - 0.00 in0.0 mm 0.00 in0.0 mm
04:00 AM 52.4°F11.3°C 45.1°F7.3°C 76% 8.1 mph WNW13.0 kmh WNW 12.7 mph20.4 kmh 29.90 in1012.5 mb - 0.00 in0.0 mm 0.00 in0.0 mm
03:50 AM 52.5°F11.4°C 45.2°F7.3°C 76% 9.2 mph WNW14.8 kmh WNW 13.8 mph22.2 kmh 29.90 in1012.5 mb - 0.00 in0.0 mm 0.00 in0.0 mm
03:40 AM 52.7°F11.5°C 45.3°F7.4°C 76% 9.2 mph WNW14.8 kmh WNW 12.7 mph20.4 kmh 29.90 in1012.5 mb - 0.00 in0.0 mm 0.00 in0.0 mm
03:30 AM 52.8°F11.6°C 45.4°F7.4°C 76% 9.2 mph W14.8 kmh W 12.7 mph20.4 kmh 29.90 in1012.5 mb - 0.00 in0.0 mm 0.00 in0.0 mm
03:20 AM 53.0°F11.7°C 45.6°F7.6°C 76% 9.2 mph WNW14.8 kmh WNW 16.1 mph25.9 kmh 29.90 in1012.5 mb - 0.00 in0.0 mm 0.00 in0.0 mm
03:10 AM 53.1°F11.7°C 45.7°F7.6°C 76% 9.2 mph WNW14.8 kmh WNW 13.8 mph22.2 kmh 29.90 in1012.5 mb - 0.00 in0.0 mm 0.00 in0.0 mm
03:00 AM 53.1°F11.7°C 45.7°F7.6°C 76% 11.5 mph WNW18.5 kmh WNW 13.8 mph22.2 kmh 29.90 in1012.5 mb - 0.00 in0.0 mm 0.00 in0.0 mm
02:50 AM 53.1°F11.7°C 45.4°F7.4°C 75% 8.1 mph NW13.0 kmh NW 18.4 mph29.6 kmh 29.90 in1012.5 mb - 0.00 in0.0 mm 0.00 in0.0 mm
02:40 AM 52.9°F11.6°C 45.6°F7.6°C 76% 9.2 mph WNW14.8 kmh WNW 15.0 mph24.1 kmh 29.91 in1012.9 mb - 0.00 in0.0 mm 0.00 in0.0 mm
02:30 AM 52.8°F11.6°C 45.8°F7.7°C 77% 8.1 mph W13.0 kmh W 12.7 mph20.4 kmh 29.90 in1012.5 mb - 0.00 in0.0 mm 0.00 in0.0 mm
02:20 AM 52.7°F11.5°C 45.7°F7.6°C 77% 9.2 mph WNW14.8 kmh WNW 18.4 mph29.6 kmh 29.91 in1012.9 mb - 0.00 in0.0 mm 0.00 in0.0 mm
02:10 AM 52.8°F11.6°C 46.1°F7.8°C 78% 5.8 mph W9.3 kmh W 11.5 mph18.5 kmh 29.91 in1012.9 mb - 0.00 in0.0 mm 0.00 in0.0 mm
02:00 AM 52.9°F11.6°C 45.9°F7.7°C 77% 6.9 mph W11.1 kmh W 11.5 mph18.5 kmh 29.91 in1012.9 mb - 0.00 in0.0 mm 0.00 in0.0 mm
01:50 AM 52.9°F11.6°C 45.9°F7.7°C 77% 6.9 mph W11.1 kmh W 8.1 mph13.0 kmh 29.91 in1012.9 mb - 0.00 in0.0 mm 0.00 in0.0 mm
01:40 AM 52.9°F11.6°C 46.2°F7.9°C 78% 8.1 mph WNW13.0 kmh WNW 11.5 mph18.5 kmh 29.92 in1013.2 mb - 0.00 in0.0 mm 0.00 in0.0 mm
01:30 AM 52.9°F11.6°C 45.9°F7.7°C 77% 9.2 mph W14.8 kmh W 11.5 mph18.5 kmh 29.92 in1013.2 mb - 0.00 in0.0 mm 0.00 in0.0 mm
01:20 AM 53.0°F11.7°C 46.0°F7.8°C 77% 9.2 mph WNW14.8 kmh WNW 13.8 mph22.2 kmh 29.92 in1013.2 mb - 0.00 in0.0 mm 0.00 in0.0 mm
01:10 AM 53.1°F11.7°C 46.1°F7.8°C 77% 8.1 mph WNW13.0 kmh WNW 11.5 mph18.5 kmh 29.92 in1013.2 mb - 0.00 in0.0 mm 0.00 in0.0 mm
01:00 AM 53.3°F11.8°C 45.9°F7.7°C 76% 6.9 mph WNW11.1 kmh WNW 6.9 mph11.1 kmh 29.91 in1012.9 mb - 0.00 in0.0 mm 0.00 in0.0 mm
12:50 AM 53.6°F12.0°C 45.8°F7.7°C 75% 9.2 mph W14.8 kmh W 12.7 mph20.4 kmh 29.91 in1012.9 mb - 0.00 in0.0 mm 0.00 in0.0 mm
12:40 AM 53.8°F12.1°C 45.7°F7.6°C 74% 8.1 mph W13.0 kmh W 9.2 mph14.8 kmh 29.91 in1012.9 mb - 0.00 in0.0 mm 0.00 in0.0 mm
12:30 AM 53.8°F12.1°C 45.7°F7.6°C 74% 6.9 mph W11.1 kmh W 11.5 mph18.5 kmh 29.90 in1012.5 mb - 0.00 in0.0 mm 0.00 in0.0 mm
12:20 AM 53.8°F12.1°C 45.7°F7.6°C 74% 8.1 mph WNW13.0 kmh WNW 11.5 mph18.5 kmh 29.90 in1012.5 mb - 0.00 in0.0 mm 0.00 in0.0 mm
12:10 AM 53.6°F12.0°C 45.9°F7.7°C 75% 6.9 mph W11.1 kmh W 8.1 mph13.0 kmh 29.90 in1012.5 mb - 0.00 in0.0 mm 0.00 in0.0 mm
12:00 AM 53.7°F12.1°C 45.9°F7.7°C 75% 8.1 mph W13.0 kmh W 13.8 mph22.2 kmh 29.90 in1012.5 mb - 0.00 in0.0 mm 0.00 in0.0 mm